createdAt,value
2022-10-20T00:07:53.426Z,10.7
2022-10-20T00:19:53.439Z,10.7
2022-10-20T00:31:53.196Z,10.7
2022-10-20T00:43:53.293Z,10.7
2022-10-20T00:55:53.212Z,10.7
2022-10-20T01:07:53.253Z,10.7
2022-10-20T01:19:53.246Z,10.7
2022-10-20T01:31:53.178Z,10.7
2022-10-20T01:43:53.279Z,10.7
2022-10-20T01:55:53.255Z,10.7
2022-10-20T02:07:53.280Z,10.7
2022-10-20T02:19:53.164Z,10.7
2022-10-20T02:31:53.168Z,10.7
2022-10-20T02:43:53.265Z,10.7
2022-10-20T02:55:53.286Z,10.7
2022-10-20T03:07:55.174Z,10.7
2022-10-20T03:19:53.209Z,10.7
2022-10-20T03:31:53.170Z,10.7
2022-10-20T03:43:53.160Z,10.7
2022-10-20T03:55:53.251Z,10.7
2022-10-20T04:07:53.166Z,10.7
2022-10-20T04:19:53.158Z,10.7
2022-10-20T04:31:53.286Z,10.7
2022-10-20T04:43:53.272Z,10.7
2022-10-20T04:55:53.255Z,10.7
2022-10-20T05:07:53.283Z,10.7
2022-10-20T05:19:53.358Z,10.7
2022-10-20T05:31:53.280Z,10.7
2022-10-20T05:43:53.168Z,10.7
2022-10-20T05:55:53.173Z,10.7
2022-10-20T06:07:53.263Z,10.7
2022-10-20T06:19:53.276Z,10.7
2022-10-20T06:31:53.241Z,10.7
2022-10-20T06:43:53.282Z,10.7
2022-10-20T06:55:53.168Z,10.7
2022-10-20T07:07:53.230Z,10.7
2022-10-20T07:19:53.244Z,10.7
2022-10-20T07:31:53.279Z,10.7
2022-10-20T07:43:53.211Z,10.7
2022-10-20T07:55:53.169Z,10.7
2022-10-20T08:07:53.281Z,10.7
2022-10-20T08:19:57.093Z,10.7
2022-10-20T08:31:53.216Z,10.7
2022-10-20T08:43:53.841Z,10.7
2022-10-20T08:55:53.259Z,10.7
2022-10-20T09:07:53.165Z,10.7
2022-10-20T09:19:53.169Z,10.7
2022-10-20T09:31:53.174Z,10.7
2022-10-20T09:43:55.755Z,10.7
2022-10-20T09:55:53.248Z,10.7
2022-10-20T10:07:53.270Z,10.7
2022-10-20T10:19:55.583Z,10.7
2022-10-20T10:31:53.172Z,10.7
2022-10-20T10:43:53.173Z,10.7
2022-10-20T10:55:53.167Z,10.7
2022-10-20T11:07:53.189Z,10.7
2022-10-20T11:19:53.177Z,10.7
2022-10-20T11:31:53.177Z,12.9
2022-10-20T11:43:55.173Z,12.8
2022-10-20T11:55:53.233Z,12.8
2022-10-20T12:08:00.816Z,12.3
2022-10-20T12:19:53.163Z,12.1
2022-10-20T12:31:56.244Z,12.0
2022-10-20T12:43:53.166Z,12.1
2022-10-20T12:55:53.163Z,12.1
2022-10-20T13:07:53.164Z,12.1
2022-10-20T13:19:55.480Z,12.2
2022-10-20T13:31:53.257Z,12.3
2022-10-20T13:43:57.563Z,12.6
2022-10-20T13:55:53.171Z,12.5
2022-10-20T14:07:53.171Z,12.3
2022-10-20T14:19:53.178Z,12.0
2022-10-20T14:31:53.173Z,11.8
2022-10-20T14:43:53.241Z,11.8
2022-10-20T14:55:53.274Z,11.8
2022-10-20T15:07:53.172Z,11.7
2022-10-20T15:19:53.186Z,11.6
2022-10-20T15:31:53.190Z,11.3
2022-10-20T15:43:53.186Z,11.5
2022-10-20T15:55:53.185Z,11.5
2022-10-20T16:07:53.206Z,11.4
2022-10-20T16:19:53.215Z,11.3
2022-10-20T16:31:53.185Z,11.5
2022-10-20T16:43:55.273Z,11.6
2022-10-20T16:55:53.171Z,11.6
2022-10-20T17:07:53.169Z,11.6
2022-10-20T17:19:55.538Z,11.6
2022-10-20T17:31:53.254Z,11.5
2022-10-20T17:43:53.170Z,11.3
2022-10-20T17:55:53.185Z,10.8
2022-10-20T18:07:53.284Z,10.9
2022-10-20T18:19:53.223Z,10.7
2022-10-20T18:31:53.230Z,10.7
2022-10-20T18:43:57.602Z,10.8
2022-10-20T18:55:53.181Z,10.9
2022-10-20T19:07:53.205Z,11.0
2022-10-20T19:19:53.164Z,11.1
2022-10-20T19:31:53.601Z,11.8
2022-10-20T19:43:53.189Z,11.8
2022-10-20T19:55:53.177Z,11.6
2022-10-20T20:07:53.163Z,12.0
2022-10-20T20:19:53.171Z,11.9
2022-10-20T20:31:53.252Z,11.3
2022-10-20T20:43:53.188Z,11.2
2022-10-20T20:55:53.253Z,11.3
2022-10-20T21:07:53.320Z,11.6
2022-10-20T21:19:53.165Z,11.7
2022-10-20T21:31:53.259Z,12.2
2022-10-20T21:43:53.271Z,12.3
2022-10-20T21:55:53.276Z,12.4
2022-10-20T22:07:53.200Z,12.5
2022-10-20T22:19:53.171Z,12.6
2022-10-20T22:31:53.287Z,12.8
2022-10-20T22:43:53.167Z,12.9
2022-10-20T22:55:53.165Z,12.9
2022-10-20T23:07:53.254Z,13.0
2022-10-20T23:19:53.276Z,13.0
2022-10-20T23:31:53.174Z,13.1
2022-10-20T23:43:53.280Z,13.1
2022-10-20T23:55:53.259Z,13.2
